createdAt,value
2023-01-22T00:01:08.811Z,-0.19
2023-01-22T00:03:36.965Z,-0.31
2023-01-22T00:06:05.593Z,-0.30
2023-01-22T00:08:33.381Z,-0.24
2023-01-22T00:11:01.798Z,-0.30
2023-01-22T00:13:29.702Z,-0.16
2023-01-22T00:16:00.673Z,-0.11
2023-01-22T00:18:28.639Z,-0.08
2023-01-22T00:20:57.526Z,-0.14
2023-01-22T00:23:25.990Z,-0.21
2023-01-22T00:26:02.198Z,-0.45
2023-01-22T00:28:29.855Z,-0.36
2023-01-22T00:31:03.082Z,-0.19
2023-01-22T00:33:30.849Z,-0.16
2023-01-22T00:36:04.403Z,-0.20
2023-01-22T00:38:32.156Z,-0.16
2023-01-22T00:41:02.361Z,-0.39
2023-01-22T00:43:30.370Z,-0.26
2023-01-22T00:45:58.288Z,-0.23
2023-01-22T00:48:29.212Z,-0.23
2023-01-22T00:50:57.483Z,-0.07
2023-01-22T00:53:25.317Z,-0.10
2023-01-22T00:55:54.824Z,-0.17
2023-01-22T00:58:22.713Z,-0.06
2023-01-22T01:00:51.848Z,-0.14
2023-01-22T01:03:30.498Z,-0.17
2023-01-22T01:06:02.110Z,-0.09
2023-01-22T01:08:32.545Z,-0.11
2023-01-22T01:11:02.726Z,-0.01
2023-01-22T01:13:33.635Z,0.00
2023-01-22T01:16:03.280Z,-0.13
2023-01-22T01:18:32.131Z,-0.12
2023-01-22T01:21:04.103Z,-0.13
2023-01-22T01:23:32.114Z,-0.14
2023-01-22T01:26:02.101Z,-0.15
2023-01-22T01:28:29.724Z,-0.15
2023-01-22T01:30:57.507Z,-0.17
2023-01-22T01:33:25.176Z,-0.15
2023-01-22T01:36:01.948Z,-0.14
2023-01-22T01:38:31.036Z,-0.25
2023-01-22T01:40:59.093Z,-0.28
2023-01-22T01:43:28.555Z,-0.22
2023-01-22T01:45:57.764Z,-0.21
2023-01-22T01:48:29.660Z,-0.20
2023-01-22T01:51:04.779Z,-0.19
2023-01-22T01:53:33.355Z,-0.21
2023-01-22T01:56:04.413Z,-0.26
2023-01-22T01:58:34.176Z,-0.22
2023-01-22T02:01:07.421Z,-0.19
2023-01-22T02:03:35.185Z,-0.12
2023-01-22T02:06:04.989Z,0.01
2023-01-22T02:08:33.357Z,0.04
2023-01-22T02:11:01.228Z,-0.05
2023-01-22T02:13:33.824Z,-0.02
2023-01-22T02:16:01.495Z,0.05
2023-01-22T02:18:30.466Z,0.12
2023-01-22T02:21:01.692Z,0.13
2023-01-22T02:23:32.075Z,0.09
2023-01-22T02:26:01.036Z,-0.04
2023-01-22T02:28:29.606Z,-0.02
2023-01-22T02:30:58.067Z,0.03
2023-01-22T02:33:26.256Z,-0.12
2023-01-22T02:35:53.893Z,-0.01
2023-01-22T02:38:23.620Z,0.03
2023-01-22T02:40:51.300Z,-0.04
2023-01-22T02:43:20.890Z,-0.03
2023-01-22T02:45:49.091Z,-0.06
2023-01-22T02:48:17.311Z,0.05
2023-01-22T02:50:45.086Z,-0.05
2023-01-22T02:53:14.246Z,-0.09
2023-01-22T02:55:45.005Z,-0.10
2023-01-22T02:58:13.499Z,-0.06
2023-01-22T03:00:41.297Z,-0.14
2023-01-22T03:03:15.520Z,-0.15
2023-01-22T03:05:51.069Z,-0.09
2023-01-22T03:08:20.777Z,-0.15
2023-01-22T03:10:49.764Z,-0.16
2023-01-22T03:13:35.575Z,-0.12
2023-01-22T03:16:22.258Z,-0.06
2023-01-22T03:19:09.628Z,-0.06
2023-01-22T03:21:43.817Z,-0.12
2023-01-22T03:24:12.054Z,-0.12
2023-01-22T03:26:41.186Z,-0.04
2023-01-22T03:29:09.263Z,-0.04
2023-01-22T03:31:38.443Z,0.05
2023-01-22T03:34:06.945Z,0.03
2023-01-22T03:36:34.595Z,0.10
2023-01-22T03:39:05.816Z,0.12
2023-01-22T03:41:33.491Z,0.05
2023-01-22T03:44:03.603Z,0.07
2023-01-22T03:46:34.936Z,0.10
2023-01-22T03:49:04.106Z,0.17
2023-01-22T03:51:31.941Z,0.16
2023-01-22T03:54:00.789Z,0.14
2023-01-22T03:56:28.794Z,0.18
2023-01-22T03:59:03.700Z,0.17
2023-01-22T04:01:31.478Z,0.08
2023-01-22T04:04:00.172Z,0.07
2023-01-22T04:06:29.008Z,0.07
2023-01-22T04:08:58.422Z,0.11
2023-01-22T04:11:30.995Z,0.08
2023-01-22T04:13:59.602Z,0.03
2023-01-22T04:16:31.939Z,-0.04
2023-01-22T04:19:10.965Z,-0.03
2023-01-22T04:21:38.561Z,-0.04
2023-01-22T04:24:09.444Z,-0.06
2023-01-22T04:26:37.085Z,-0.06
2023-01-22T04:29:05.817Z,-0.07
2023-01-22T04:31:35.046Z,-0.07
2023-01-22T04:34:21.516Z,-0.09
2023-01-22T04:36:56.057Z,-0.11
2023-01-22T04:39:26.251Z,-0.16
2023-01-22T04:41:53.914Z,-0.16
2023-01-22T04:44:22.195Z,-0.19
2023-01-22T04:46:51.538Z,-0.17
2023-01-22T04:49:19.981Z,-0.17
2023-01-22T04:51:49.187Z,-0.13
2023-01-22T04:54:18.567Z,-0.11
2023-01-22T04:56:46.304Z,-0.08
2023-01-22T04:59:15.277Z,-0.05
2023-01-22T05:01:44.221Z,-0.01
2023-01-22T05:04:15.091Z,0.02
2023-01-22T05:06:42.792Z,0.06
2023-01-22T05:09:11.811Z,0.05
2023-01-22T05:11:54.066Z,0.07
2023-01-22T05:14:22.127Z,0.07
2023-01-22T05:16:50.084Z,0.08
2023-01-22T05:19:19.863Z,0.10
2023-01-22T05:21:47.529Z,0.11
2023-01-22T05:24:19.192Z,0.11
2023-01-22T05:26:47.067Z,0.13
2023-01-22T05:29:34.767Z,0.12
2023-01-22T05:32:38.149Z,0.17
2023-01-22T05:35:07.771Z,0.12
2023-01-22T05:37:39.079Z,0.16
2023-01-22T05:40:09.255Z,0.16
2023-01-22T05:42:36.906Z,0.15
2023-01-22T05:45:07.997Z,0.18
2023-01-22T05:47:41.154Z,0.16
2023-01-22T05:50:18.010Z,0.17
2023-01-22T05:52:46.982Z,0.16
2023-01-22T05:55:15.293Z,0.12
2023-01-22T05:57:47.024Z,0.09
2023-01-22T06:00:18.052Z,0.11
2023-01-22T06:02:50.245Z,0.09
2023-01-22T06:05:19.607Z,0.09
2023-01-22T06:07:53.892Z,0.08
2023-01-22T06:10:24.754Z,0.11
2023-01-22T06:12:52.394Z,0.02
2023-01-22T06:15:21.075Z,-0.01
2023-01-22T06:17:55.857Z,-0.04
2023-01-22T06:20:25.241Z,-0.04
2023-01-22T06:22:52.884Z,-0.05
2023-01-22T06:25:21.228Z,-0.08
2023-01-22T06:28:09.403Z,-0.06
2023-01-22T06:30:37.766Z,-0.06
2023-01-22T06:33:05.776Z,-0.06
2023-01-22T06:35:35.310Z,-0.10
2023-01-22T06:38:03.093Z,-0.12
2023-01-22T06:40:34.125Z,-0.16
2023-01-22T06:43:04.692Z,-0.15
2023-01-22T06:45:32.625Z,-0.17
2023-01-22T06:48:06.025Z,-0.22
2023-01-22T06:50:34.961Z,-0.21
2023-01-22T06:53:03.377Z,-0.27
2023-01-22T06:55:31.512Z,-0.27
2023-01-22T06:57:59.302Z,-0.25
2023-01-22T07:00:27.436Z,-0.22
2023-01-22T07:02:55.194Z,-0.21
2023-01-22T07:05:23.257Z,-0.20
2023-01-22T07:07:54.387Z,-0.18
2023-01-22T07:10:22.939Z,-0.15
2023-01-22T07:12:54.911Z,-0.14
2023-01-22T07:15:23.695Z,-0.10
2023-01-22T07:17:52.255Z,-0.03
2023-01-22T07:20:21.219Z,0.01
2023-01-22T07:22:49.020Z,0.02
2023-01-22T07:25:18.331Z,0.11
2023-01-22T07:27:46.492Z,0.10
2023-01-22T07:30:14.790Z,0.12
2023-01-22T07:32:42.860Z,0.12
2023-01-22T07:35:10.571Z,0.11
2023-01-22T07:37:38.639Z,0.13
2023-01-22T07:40:07.558Z,0.14
2023-01-22T07:42:38.827Z,0.15
2023-01-22T07:45:07.487Z,0.15
2023-01-22T07:47:35.158Z,0.10
2023-01-22T07:50:02.775Z,0.24
2023-01-22T07:52:30.571Z,0.32
2023-01-22T07:54:58.205Z,0.40
2023-01-22T07:57:25.802Z,0.40
2023-01-22T07:59:54.718Z,0.40
2023-01-22T08:02:23.080Z,0.39
2023-01-22T08:04:50.679Z,0.34
2023-01-22T08:07:19.474Z,0.38
2023-01-22T08:09:47.065Z,0.35
2023-01-22T08:12:15.202Z,0.31
2023-01-22T08:14:42.779Z,0.30
2023-01-22T08:17:12.052Z,0.34
2023-01-22T08:19:39.623Z,0.36
2023-01-22T08:22:08.042Z,0.42
2023-01-22T08:24:35.666Z,0.46
2023-01-22T08:27:04.447Z,0.46
2023-01-22T08:29:32.019Z,0.52
2023-01-22T08:32:00.136Z,0.62
2023-01-22T08:34:29.178Z,0.69
2023-01-22T08:36:57.873Z,0.78
2023-01-22T08:39:25.556Z,0.89
2023-01-22T08:41:57.516Z,0.94
2023-01-22T08:44:25.197Z,0.88
2023-01-22T08:46:53.529Z,0.84
2023-01-22T08:49:21.675Z,0.80
2023-01-22T08:51:51.662Z,0.79
2023-01-22T08:54:19.729Z,0.78
2023-01-22T08:56:48.113Z,0.78
2023-01-22T08:59:16.313Z,0.83
2023-01-22T09:01:44.337Z,0.85
2023-01-22T09:04:12.426Z,0.85
2023-01-22T09:06:40.443Z,0.89
2023-01-22T09:09:09.981Z,1.01
2023-01-22T09:11:37.565Z,1.13
2023-01-22T09:14:08.603Z,1.25
2023-01-22T09:16:36.627Z,1.39
2023-01-22T09:19:04.976Z,1.52
2023-01-22T09:21:33.771Z,1.66
2023-01-22T09:24:01.977Z,1.75
2023-01-22T09:26:32.205Z,1.86
2023-01-22T09:29:00.826Z,1.91
2023-01-22T09:31:28.542Z,1.89
2023-01-22T09:33:56.414Z,1.91
2023-01-22T09:36:24.038Z,1.86
2023-01-22T09:38:52.396Z,1.84
2023-01-22T09:41:26.293Z,1.90
2023-01-22T09:43:59.273Z,1.97
2023-01-22T09:46:32.598Z,2.19
2023-01-22T09:49:08.551Z,2.33
2023-01-22T09:51:36.340Z,2.29
2023-01-22T09:54:07.800Z,2.14
2023-01-22T09:56:40.279Z,2.09
2023-01-22T09:59:16.752Z,2.07
2023-01-22T10:01:47.507Z,2.10
2023-01-22T10:04:28.155Z,2.12
2023-01-22T10:06:59.047Z,2.12
2023-01-22T10:09:31.671Z,2.08
2023-01-22T10:12:02.784Z,2.09
2023-01-22T10:14:32.382Z,2.05
2023-01-22T10:17:03.551Z,2.01
2023-01-22T10:19:42.374Z,2.03
2023-01-22T10:22:17.962Z,2.03
2023-01-22T10:24:45.890Z,2.05
2023-01-22T10:27:16.557Z,2.06
2023-01-22T10:29:57.131Z,2.12
2023-01-22T10:32:27.038Z,2.15
2023-01-22T10:35:03.423Z,2.20
2023-01-22T10:37:31.032Z,2.19
2023-01-22T10:40:00.792Z,2.21
2023-01-22T10:42:30.784Z,2.27
2023-01-22T10:45:15.910Z,2.29
2023-01-22T10:47:43.496Z,2.35
2023-01-22T10:50:15.736Z,2.47
2023-01-22T10:52:48.865Z,2.63
2023-01-22T10:55:22.733Z,2.80
2023-01-22T10:57:55.335Z,2.87
2023-01-22T11:00:39.773Z,2.89
2023-01-22T11:03:19.968Z,2.90
2023-01-22T11:05:51.826Z,2.91
2023-01-22T11:08:23.685Z,2.96
2023-01-22T11:10:55.826Z,2.99
2023-01-22T11:13:29.661Z,3.04
2023-01-22T11:16:03.797Z,3.11
2023-01-22T11:18:38.059Z,3.23
2023-01-22T11:21:15.495Z,3.29
2023-01-22T11:23:53.299Z,3.40
2023-01-22T11:26:34.644Z,3.49
2023-01-22T11:29:13.634Z,3.57
2023-01-22T11:31:59.642Z,3.61
2023-01-22T11:34:40.878Z,3.66
2023-01-22T11:37:13.538Z,3.71
2023-01-22T11:39:58.312Z,3.74
2023-01-22T11:42:44.537Z,3.65
2023-01-22T11:45:27.336Z,3.69
2023-01-22T11:48:10.473Z,3.69
2023-01-22T11:50:44.945Z,3.68
2023-01-22T11:53:35.431Z,3.70
2023-01-22T11:56:17.516Z,3.65
2023-01-22T11:58:51.827Z,3.65
2023-01-22T12:01:33.549Z,3.74
2023-01-22T12:04:30.392Z,3.98
2023-01-22T12:07:14.556Z,4.27
2023-01-22T12:09:53.014Z,4.53
2023-01-22T12:12:33.677Z,4.77
2023-01-22T12:15:20.744Z,4.96
2023-01-22T12:17:59.867Z,4.99
2023-01-22T12:20:44.590Z,5.07
2023-01-22T12:23:18.418Z,5.19
2023-01-22T12:25:52.208Z,5.11
2023-01-22T12:28:25.434Z,5.01
2023-01-22T12:31:01.106Z,5.14
2023-01-22T12:33:31.691Z,5.23
2023-01-22T12:36:05.438Z,5.20
2023-01-22T12:38:43.541Z,5.25
2023-01-22T12:41:45.765Z,5.27
2023-01-22T12:44:22.711Z,5.28
2023-01-22T12:47:01.983Z,5.34
2023-01-22T12:49:29.955Z,5.38
2023-01-22T12:52:00.449Z,5.44
2023-01-22T12:54:33.546Z,5.47
2023-01-22T12:57:13.075Z,5.44
2023-01-22T12:59:47.575Z,5.37
2023-01-22T13:02:40.417Z,5.42
2023-01-22T13:05:21.065Z,5.57
2023-01-22T13:08:02.073Z,5.75
2023-01-22T13:10:31.109Z,5.84
2023-01-22T13:13:02.987Z,5.82
2023-01-22T13:15:32.832Z,6.02
2023-01-22T13:18:08.028Z,6.31
2023-01-22T13:20:38.105Z,6.52
2023-01-22T13:23:08.236Z,6.42
2023-01-22T13:25:36.276Z,6.19
2023-01-22T13:28:04.928Z,6.04
2023-01-22T13:30:32.668Z,5.88
2023-01-22T13:33:05.958Z,5.66
2023-01-22T13:35:36.583Z,5.46
2023-01-22T13:38:04.828Z,5.32
2023-01-22T13:40:46.301Z,5.20
2023-01-22T13:43:20.817Z,5.12
2023-01-22T13:45:49.706Z,5.08
2023-01-22T13:48:19.931Z,5.03
2023-01-22T13:50:52.924Z,5.01
2023-01-22T13:53:32.193Z,4.92
2023-01-22T13:56:01.635Z,4.87
2023-01-22T13:58:47.877Z,4.82
2023-01-22T14:01:29.261Z,4.71
2023-01-22T14:04:01.887Z,4.65
2023-01-22T14:06:30.470Z,4.59
2023-01-22T14:08:59.314Z,4.51
2023-01-22T14:11:38.698Z,4.45
2023-01-22T14:14:16.150Z,4.40
2023-01-22T14:16:44.846Z,4.24
2023-01-22T14:19:13.248Z,4.08
2023-01-22T14:21:41.648Z,3.89
2023-01-22T14:24:09.579Z,3.76
2023-01-22T14:26:39.038Z,3.60
2023-01-22T14:29:08.644Z,3.51
2023-01-22T14:31:36.730Z,3.40
2023-01-22T14:34:05.361Z,3.36
2023-01-22T14:36:32.972Z,3.30
2023-01-22T14:39:00.932Z,3.20
2023-01-22T14:41:29.040Z,3.15
2023-01-22T14:43:58.300Z,3.03
2023-01-22T14:46:25.890Z,2.82
2023-01-22T14:48:54.007Z,2.58
2023-01-22T14:51:21.664Z,2.35
2023-01-22T14:53:50.583Z,2.20
2023-01-22T14:56:18.163Z,2.17
2023-01-22T14:58:47.106Z,2.08
2023-01-22T15:01:17.762Z,2.06
2023-01-22T15:03:45.726Z,1.99
2023-01-22T15:06:13.403Z,2.01
2023-01-22T15:08:41.200Z,2.01
2023-01-22T15:11:08.825Z,1.97
2023-01-22T15:13:37.155Z,1.90
2023-01-22T15:16:05.888Z,1.84
2023-01-22T15:18:36.180Z,1.82
2023-01-22T15:21:04.656Z,1.79
2023-01-22T15:23:32.771Z,1.75
2023-01-22T15:26:02.404Z,1.74
2023-01-22T15:28:30.986Z,1.77
2023-01-22T15:31:07.480Z,1.77
2023-01-22T15:33:37.199Z,1.75
2023-01-22T15:36:06.111Z,1.75
2023-01-22T15:38:33.845Z,1.71
2023-01-22T15:41:06.049Z,1.71
2023-01-22T15:43:33.744Z,1.65
2023-01-22T15:46:01.482Z,1.64
2023-01-22T15:48:29.532Z,1.67
2023-01-22T15:51:08.314Z,1.63
2023-01-22T15:53:37.539Z,1.55
2023-01-22T15:56:06.403Z,1.55
2023-01-22T15:58:35.737Z,1.52
2023-01-22T16:01:03.364Z,1.49
2023-01-22T16:03:31.271Z,1.50
2023-01-22T16:06:10.274Z,1.51
2023-01-22T16:08:38.183Z,1.43
2023-01-22T16:11:06.147Z,1.45
2023-01-22T16:13:34.499Z,1.42
2023-01-22T16:16:03.928Z,1.38
2023-01-22T16:18:33.395Z,1.34
2023-01-22T16:21:01.822Z,1.32
2023-01-22T16:23:32.643Z,1.34
2023-01-22T16:26:02.197Z,1.32
2023-01-22T16:28:30.484Z,1.35
2023-01-22T16:31:02.577Z,1.36
2023-01-22T16:33:33.461Z,1.38
2023-01-22T16:36:02.345Z,1.38
2023-01-22T16:38:32.315Z,1.33
2023-01-22T16:41:24.130Z,1.29
2023-01-22T16:43:54.746Z,1.17
2023-01-22T16:46:24.672Z,1.13
2023-01-22T16:49:03.544Z,1.12
2023-01-22T16:51:35.632Z,1.13
2023-01-22T16:54:04.930Z,1.10
2023-01-22T16:56:33.408Z,1.12
2023-01-22T16:59:01.444Z,1.10
2023-01-22T17:01:30.774Z,1.04
2023-01-22T17:03:58.639Z,1.04
2023-01-22T17:06:30.474Z,1.09
2023-01-22T17:08:58.405Z,1.03
2023-01-22T17:11:28.203Z,0.99
2023-01-22T17:13:55.973Z,0.94
2023-01-22T17:16:23.590Z,0.92
2023-01-22T17:18:51.443Z,0.87
2023-01-22T17:21:20.350Z,0.83
2023-01-22T17:23:47.961Z,0.82
2023-01-22T17:26:17.242Z,0.81
2023-01-22T17:28:46.199Z,0.84
2023-01-22T17:31:16.547Z,0.87
2023-01-22T17:33:44.509Z,0.87
2023-01-22T17:36:15.139Z,0.91
2023-01-22T17:38:43.395Z,0.87
2023-01-22T17:41:14.091Z,0.82
2023-01-22T17:43:42.072Z,0.76
2023-01-22T17:46:13.931Z,0.68
2023-01-22T17:48:41.661Z,0.75
2023-01-22T17:51:11.250Z,0.73
2023-01-22T17:53:40.949Z,0.68
2023-01-22T17:56:11.228Z,0.73
2023-01-22T17:58:42.545Z,0.79
2023-01-22T18:01:15.005Z,0.73
2023-01-22T18:03:42.739Z,0.77
2023-01-22T18:06:11.009Z,0.77
2023-01-22T18:08:39.877Z,0.74
2023-01-22T18:11:09.274Z,0.78
2023-01-22T18:13:38.431Z,0.76
2023-01-22T18:16:07.126Z,0.75
2023-01-22T18:18:36.716Z,0.75
2023-01-22T18:21:05.224Z,0.84
2023-01-22T18:23:32.840Z,0.81
2023-01-22T18:26:04.763Z,0.75
2023-01-22T18:28:32.451Z,0.71
2023-01-22T18:31:05.724Z,0.75
2023-01-22T18:33:34.728Z,0.68
2023-01-22T18:36:05.631Z,0.78
2023-01-22T18:38:34.378Z,0.81
2023-01-22T18:41:05.977Z,0.67
2023-01-22T18:43:33.754Z,0.59
2023-01-22T18:46:06.550Z,0.59
2023-01-22T18:48:34.533Z,0.57
2023-01-22T18:51:06.170Z,0.61
2023-01-22T18:53:35.555Z,0.59
2023-01-22T18:56:06.871Z,0.54
2023-01-22T18:58:34.883Z,0.47
2023-01-22T19:01:09.851Z,0.49
2023-01-22T19:03:37.740Z,0.57
2023-01-22T19:06:13.404Z,0.55
2023-01-22T19:08:46.393Z,0.53
2023-01-22T19:11:15.257Z,0.49
2023-01-22T19:13:45.791Z,0.47
2023-01-22T19:16:16.896Z,0.43
2023-01-22T19:18:46.549Z,0.36
2023-01-22T19:21:18.512Z,0.24
2023-01-22T19:23:48.365Z,0.22
2023-01-22T19:26:20.681Z,0.28
2023-01-22T19:28:49.553Z,0.34
2023-01-22T19:31:20.538Z,0.40
2023-01-22T19:33:50.707Z,0.36
2023-01-22T19:36:20.608Z,0.36
2023-01-22T19:38:48.752Z,0.37
2023-01-22T19:41:17.779Z,0.33
2023-01-22T19:43:45.380Z,0.30
2023-01-22T19:46:15.292Z,0.23
2023-01-22T19:48:42.934Z,0.07
2023-01-22T19:51:13.243Z,-0.09
2023-01-22T19:53:42.787Z,-0.37
2023-01-22T19:56:18.881Z,-0.30
2023-01-22T19:58:46.751Z,-0.34
2023-01-22T20:01:15.285Z,-0.32
2023-01-22T20:03:43.818Z,-0.25
2023-01-22T20:06:13.474Z,-0.29
2023-01-22T20:08:43.088Z,-0.32
2023-01-22T20:11:12.647Z,-0.35
2023-01-22T20:13:42.023Z,-0.39
2023-01-22T20:16:17.846Z,-0.45
2023-01-22T20:18:46.178Z,-0.45
2023-01-22T20:21:14.546Z,-0.51
2023-01-22T20:23:44.430Z,-0.57
2023-01-22T20:26:13.011Z,-0.61
2023-01-22T20:28:40.638Z,-0.66
2023-01-22T20:31:12.806Z,-0.70
2023-01-22T20:33:40.547Z,-0.76
2023-01-22T20:36:11.140Z,-0.78
2023-01-22T20:38:39.221Z,-0.82
2023-01-22T20:41:09.693Z,-0.88
2023-01-22T20:43:39.144Z,-0.93
2023-01-22T20:46:09.065Z,-1.02
2023-01-22T20:48:37.262Z,-0.99
2023-01-22T20:51:05.871Z,-0.95
2023-01-22T20:53:33.546Z,-0.95
2023-01-22T20:56:03.066Z,-0.97
2023-01-22T20:58:33.923Z,-0.94
2023-01-22T21:01:04.774Z,-0.96
2023-01-22T21:03:32.906Z,-0.96
2023-01-22T21:06:03.187Z,-0.98
2023-01-22T21:08:31.455Z,-0.98
2023-01-22T21:11:00.053Z,-0.95
2023-01-22T21:13:28.523Z,-0.95
2023-01-22T21:15:58.311Z,-0.97
2023-01-22T21:18:26.050Z,-0.98
2023-01-22T21:20:53.633Z,-1.03
2023-01-22T21:23:21.247Z,-1.02
2023-01-22T21:25:48.847Z,-0.96
2023-01-22T21:28:16.430Z,-0.94
2023-01-22T21:30:44.050Z,-1.01
2023-01-22T21:33:13.475Z,-0.99
2023-01-22T21:35:41.050Z,-0.99
2023-01-22T21:38:08.992Z,-0.99
2023-01-22T21:40:36.626Z,-1.03
2023-01-22T21:43:22.292Z,-1.11
2023-01-22T21:46:07.425Z,-1.20
2023-01-22T21:48:37.348Z,-1.13
2023-01-22T21:51:05.263Z,-1.36
2023-01-22T21:53:33.427Z,-1.52
2023-01-22T21:56:01.039Z,-1.64
2023-01-22T21:58:28.903Z,-1.72
2023-01-22T22:00:56.610Z,-1.75
2023-01-22T22:03:24.423Z,-1.76
2023-01-22T22:06:01.952Z,-1.78
2023-01-22T22:08:30.419Z,-1.79
2023-01-22T22:10:58.426Z,-1.84
2023-01-22T22:13:26.128Z,-1.72
2023-01-22T22:15:53.764Z,-1.74
2023-01-22T22:18:21.390Z,-1.76
2023-01-22T22:20:49.816Z,-1.81
2023-01-22T22:23:18.769Z,-1.75
2023-01-22T22:25:47.916Z,-1.66
2023-01-22T22:28:15.546Z,-1.63
2023-01-22T22:30:43.401Z,-1.55
2023-01-22T22:33:11.028Z,-1.46
2023-01-22T22:35:38.713Z,-1.44
2023-01-22T22:38:06.307Z,-1.37
2023-01-22T22:40:35.549Z,-1.28
2023-01-22T22:43:03.130Z,-1.26
2023-01-22T22:45:30.810Z,-1.23
2023-01-22T22:47:58.653Z,-1.16
2023-01-22T22:50:26.326Z,-1.10
2023-01-22T22:52:53.921Z,-1.10
2023-01-22T22:55:21.845Z,-1.01
2023-01-22T22:57:50.744Z,-0.98
2023-01-22T23:00:19.889Z,-1.01
2023-01-22T23:02:47.644Z,-0.94
2023-01-22T23:05:15.387Z,-1.03
2023-01-22T23:07:43.047Z,-1.03
2023-01-22T23:10:28.565Z,-0.99
2023-01-22T23:12:59.631Z,-0.93
2023-01-22T23:15:29.689Z,-0.90
2023-01-22T23:17:59.052Z,-0.87
2023-01-22T23:20:28.226Z,-0.84
2023-01-22T23:22:56.492Z,-0.85
2023-01-22T23:25:24.827Z,-0.91
2023-01-22T23:27:52.802Z,-0.93
2023-01-22T23:30:22.098Z,-0.80
2023-01-22T23:32:49.707Z,-0.77
2023-01-22T23:35:17.927Z,-0.76
2023-01-22T23:37:45.511Z,-0.75
2023-01-22T23:40:13.940Z,-0.75
2023-01-22T23:42:41.658Z,-0.68
2023-01-22T23:45:11.995Z,-0.72
2023-01-22T23:47:40.995Z,-0.77
2023-01-22T23:50:10.211Z,-0.80
2023-01-22T23:52:38.352Z,-0.88
2023-01-22T23:55:06.701Z,-0.94
2023-01-22T23:57:34.356Z,-0.97
